sensor_id;sensor_type;location;lat;lon;timestamp;P1;durP1;ratioP1;P2;durP2;ratioP2
71910;SDS011;59783;52.232;5.170;2022-10-17T00:00:25;18.02;;;16.33;;
71910;SDS011;59783;52.232;5.170;2022-10-17T00:02:50;17.83;;;16.15;;
71910;SDS011;59783;52.232;5.170;2022-10-17T00:05:16;18.10;;;16.40;;
71910;SDS011;59783;52.232;5.170;2022-10-17T00:07:41;16.80;;;15.18;;
71910;SDS011;59783;52.232;5.170;2022-10-17T00:10:06;17.83;;;16.15;;
71910;SDS011;59783;52.232;5.170;2022-10-17T00:12:32;16.98;;;15.38;;
71910;SDS011;59783;52.232;5.170;2022-10-17T00:14:58;17.73;;;16.02;;
71910;SDS011;59783;52.232;5.170;2022-10-17T00:17:23;17.83;;;16.13;;
71910;SDS011;59783;52.232;5.170;2022-10-17T00:19:49;17.70;;;16.00;;
71910;SDS011;59783;52.232;5.170;2022-10-17T00:22:14;18.00;;;16.30;;
71910;SDS011;59783;52.232;5.170;2022-10-17T00:24:39;18.15;;;16.45;;
71910;SDS011;59783;52.232;5.170;2022-10-17T00:27:05;19.55;;;17.75;;
71910;SDS011;59783;52.232;5.170;2022-10-17T00:29:30;19.90;;;18.10;;
71910;SDS011;59783;52.232;5.170;2022-10-17T00:31:56;19.02;;;17.30;;
71910;SDS011;59783;52.232;5.170;2022-10-17T00:34:22;19.05;;;17.33;;
71910;SDS011;59783;52.232;5.170;2022-10-17T00:36:47;19.33;;;17.55;;
71910;SDS011;59783;52.232;5.170;2022-10-17T00:39:13;20.23;;;18.42;;
71910;SDS011;59783;52.232;5.170;2022-10-17T00:41:38;19.48;;;17.67;;
71910;SDS011;59783;52.232;5.170;2022-10-17T00:44:05;19.05;;;17.25;;
71910;SDS011;59783;52.232;5.170;2022-10-17T00:46:33;18.60;;;16.88;;
71910;SDS011;59783;52.232;5.170;2022-10-17T00:49:08;18.45;;;16.75;;
71910;SDS011;59783;52.232;5.170;2022-10-17T00:51:42;18.15;;;16.45;;
71910;SDS011;59783;52.232;5.170;2022-10-17T00:54:10;18.25;;;16.55;;
71910;SDS011;59783;52.232;5.170;2022-10-17T00:56:38;17.60;;;15.90;;
71910;SDS011;59783;52.232;5.170;2022-10-17T00:59:04;17.67;;;15.98;;
71910;SDS011;59783;52.232;5.170;2022-10-17T01:01:31;18.20;;;16.48;;
71910;SDS011;59783;52.232;5.170;2022-10-17T01:03:56;17.92;;;16.23;;
71910;SDS011;59783;52.232;5.170;2022-10-17T01:06:22;18.65;;;16.92;;
71910;SDS011;59783;52.232;5.170;2022-10-17T01:08:47;16.88;;;15.25;;
71910;SDS011;59783;52.232;5.170;2022-10-17T01:13:46;19.58;;;17.77;;
71910;SDS011;59783;52.232;5.170;2022-10-17T01:18:47;18.05;;;16.35;;
71910;SDS011;59783;52.232;5.170;2022-10-17T01:27:04;16.65;;;15.05;;
71910;SDS011;59783;52.232;5.170;2022-10-17T01:29:46;17.20;;;15.57;;
71910;SDS011;59783;52.232;5.170;2022-10-17T01:37:48;17.65;;;15.95;;
71910;SDS011;59783;52.232;5.170;2022-10-17T01:40:38;18.17;;;16.48;;
71910;SDS011;59783;52.232;5.170;2022-10-17T01:43:21;17.55;;;15.85;;
71910;SDS011;59783;52.232;5.170;2022-10-17T01:45:52;18.02;;;16.33;;
71910;SDS011;59783;52.232;5.170;2022-10-17T01:48:33;17.92;;;16.23;;
71910;SDS011;59783;52.232;5.170;2022-10-17T01:51:16;19.35;;;17.55;;
71910;SDS011;59783;52.232;5.170;2022-10-17T01:53:59;16.02;;;14.43;;
71910;SDS011;59783;52.232;5.170;2022-10-17T01:56:27;16.30;;;14.70;;
71910;SDS011;59783;52.232;5.170;2022-10-17T01:58:55;16.65;;;15.02;;
71910;SDS011;59783;52.232;5.170;2022-10-17T02:01:25;16.38;;;14.77;;
71910;SDS011;59783;52.232;5.170;2022-10-17T02:03:50;17.58;;;15.90;;
71910;SDS011;59783;52.232;5.170;2022-10-17T02:06:16;17.27;;;15.65;;
71910;SDS011;59783;52.232;5.170;2022-10-17T02:08:43;17.55;;;15.90;;
71910;SDS011;59783;52.232;5.170;2022-10-17T02:16:17;17.50;;;15.88;;
71910;SDS011;59783;52.232;5.170;2022-10-17T02:22:37;16.55;;;14.95;;
71910;SDS011;59783;52.232;5.170;2022-10-17T02:24:59;18.30;;;16.60;;
71910;SDS011;59783;52.232;5.170;2022-10-17T02:35:46;18.52;;;16.83;;
71910;SDS011;59783;52.232;5.170;2022-10-17T02:38:14;18.20;;;16.50;;
71910;SDS011;59783;52.232;5.170;2022-10-17T02:40:40;18.88;;;17.17;;
71910;SDS011;59783;52.232;5.170;2022-10-17T02:43:06;18.10;;;16.40;;
71910;SDS011;59783;52.232;5.170;2022-10-17T02:45:31;18.63;;;16.92;;
71910;SDS011;59783;52.232;5.170;2022-10-17T02:48:04;17.73;;;16.05;;
71910;SDS011;59783;52.232;5.170;2022-10-17T02:50:42;18.88;;;17.17;;
71910;SDS011;59783;52.232;5.170;2022-10-17T02:53:14;17.13;;;15.52;;
71910;SDS011;59783;52.232;5.170;2022-10-17T02:55:45;20.05;;;18.25;;
71910;SDS011;59783;52.232;5.170;2022-10-17T02:58:16;22.10;;;20.20;;
71910;SDS011;59783;52.232;5.170;2022-10-17T03:00:44;18.27;;;16.58;;
71910;SDS011;59783;52.232;5.170;2022-10-17T03:03:20;18.05;;;16.35;;
71910;SDS011;59783;52.232;5.170;2022-10-17T03:05:47;18.40;;;16.67;;
71910;SDS011;59783;52.232;5.170;2022-10-17T03:08:13;18.65;;;16.95;;
71910;SDS011;59783;52.232;5.170;2022-10-17T03:10:38;18.55;;;16.83;;
71910;SDS011;59783;52.232;5.170;2022-10-17T03:13:03;19.25;;;17.50;;
71910;SDS011;59783;52.232;5.170;2022-10-17T03:15:28;19.88;;;18.08;;
71910;SDS011;59783;52.232;5.170;2022-10-17T03:17:54;19.00;;;17.27;;
71910;SDS011;59783;52.232;5.170;2022-10-17T03:20:19;18.40;;;16.67;;
71910;SDS011;59783;52.232;5.170;2022-10-17T03:22:44;19.25;;;17.48;;
71910;SDS011;59783;52.232;5.170;2022-10-17T03:25:10;18.52;;;16.83;;
71910;SDS011;59783;52.232;5.170;2022-10-17T03:27:35;18.85;;;17.13;;
71910;SDS011;59783;52.232;5.170;2022-10-17T03:30:00;18.58;;;16.88;;
71910;SDS011;59783;52.232;5.170;2022-10-17T03:32:26;18.77;;;17.08;;
71910;SDS011;59783;52.232;5.170;2022-10-17T03:34:51;17.85;;;16.15;;
71910;SDS011;59783;52.232;5.170;2022-10-17T03:37:16;18.38;;;16.67;;
71910;SDS011;59783;52.232;5.170;2022-10-17T03:39:42;18.48;;;16.77;;
71910;SDS011;59783;52.232;5.170;2022-10-17T03:42:07;19.02;;;17.30;;
71910;SDS011;59783;52.232;5.170;2022-10-17T03:44:32;19.00;;;17.30;;
71910;SDS011;59783;52.232;5.170;2022-10-17T03:46:58;18.73;;;17.00;;
71910;SDS011;59783;52.232;5.170;2022-10-17T03:49:23;18.40;;;16.67;;
71910;SDS011;59783;52.232;5.170;2022-10-17T03:51:48;18.83;;;17.10;;
71910;SDS011;59783;52.232;5.170;2022-10-17T03:54:13;19.13;;;17.33;;
71910;SDS011;59783;52.232;5.170;2022-10-17T03:56:39;18.23;;;16.52;;
71910;SDS011;59783;52.232;5.170;2022-10-17T03:59:04;18.10;;;16.40;;
71910;SDS011;59783;52.232;5.170;2022-10-17T04:01:29;18.23;;;16.52;;
71910;SDS011;59783;52.232;5.170;2022-10-17T04:03:55;19.23;;;17.52;;
71910;SDS011;59783;52.232;5.170;2022-10-17T04:06:21;17.85;;;16.15;;
71910;SDS011;59783;52.232;5.170;2022-10-17T04:08:46;17.90;;;16.27;;
71910;SDS011;59783;52.232;5.170;2022-10-17T04:11:13;18.92;;;17.23;;
71910;SDS011;59783;52.232;5.170;2022-10-17T04:13:39;17.80;;;16.10;;
71910;SDS011;59783;52.232;5.170;2022-10-17T04:16:06;18.33;;;16.63;;
71910;SDS011;59783;52.232;5.170;2022-10-17T04:18:32;19.13;;;17.33;;
71910;SDS011;59783;52.232;5.170;2022-10-17T04:21:00;18.27;;;16.58;;
71910;SDS011;59783;52.232;5.170;2022-10-17T04:23:28;18.67;;;16.98;;
71910;SDS011;59783;52.232;5.170;2022-10-17T04:25:57;18.92;;;17.20;;
71910;SDS011;59783;52.232;5.170;2022-10-17T04:28:24;18.35;;;16.65;;
71910;SDS011;59783;52.232;5.170;2022-10-17T04:31:06;18.70;;;17.00;;
71910;SDS011;59783;52.232;5.170;2022-10-17T04:33:33;17.77;;;16.08;;
71910;SDS011;59783;52.232;5.170;2022-10-17T04:36:00;16.52;;;14.90;;
71910;SDS011;59783;52.232;5.170;2022-10-17T04:38:26;17.85;;;16.23;;
71910;SDS011;59783;52.232;5.170;2022-10-17T04:40:52;18.80;;;17.05;;
71910;SDS011;59783;52.232;5.170;2022-10-17T04:43:18;18.63;;;16.92;;
71910;SDS011;59783;52.232;5.170;2022-10-17T04:45:43;18.50;;;16.80;;
71910;SDS011;59783;52.232;5.170;2022-10-17T04:48:09;17.05;;;15.45;;
71910;SDS011;59783;52.232;5.170;2022-10-17T04:50:34;19.30;;;17.58;;
71910;SDS011;59783;52.232;5.170;2022-10-17T04:52:59;18.27;;;16.60;;
71910;SDS011;59783;52.232;5.170;2022-10-17T04:55:25;17.95;;;16.25;;
71910;SDS011;59783;52.232;5.170;2022-10-17T04:57:50;17.50;;;15.88;;
71910;SDS011;59783;52.232;5.170;2022-10-17T05:00:15;16.50;;;14.90;;
71910;SDS011;59783;52.232;5.170;2022-10-17T05:02:41;18.08;;;16.35;;
71910;SDS011;59783;52.232;5.170;2022-10-17T05:05:06;18.17;;;16.48;;
71910;SDS011;59783;52.232;5.170;2022-10-17T05:07:32;17.02;;;15.43;;
71910;SDS011;59783;52.232;5.170;2022-10-17T05:09:57;18.73;;;17.02;;
71910;SDS011;59783;52.232;5.170;2022-10-17T05:12:22;18.63;;;16.90;;
71910;SDS011;59783;52.232;5.170;2022-10-17T05:14:48;20.23;;;18.42;;
71910;SDS011;59783;52.232;5.170;2022-10-17T05:17:13;17.98;;;16.33;;
71910;SDS011;59783;52.232;5.170;2022-10-17T05:19:38;19.33;;;17.60;;
71910;SDS011;59783;52.232;5.170;2022-10-17T05:22:04;18.83;;;17.13;;
71910;SDS011;59783;52.232;5.170;2022-10-17T05:24:29;19.33;;;17.60;;
71910;SDS011;59783;52.232;5.170;2022-10-17T05:26:54;18.20;;;16.50;;
71910;SDS011;59783;52.232;5.170;2022-10-17T05:29:20;16.95;;;15.32;;
71910;SDS011;59783;52.232;5.170;2022-10-17T05:31:45;18.60;;;16.90;;
71910;SDS011;59783;52.232;5.170;2022-10-17T05:34:10;16.80;;;15.20;;
71910;SDS011;59783;52.232;5.170;2022-10-17T05:36:36;17.13;;;15.52;;
71910;SDS011;59783;52.232;5.170;2022-10-17T05:39:01;18.05;;;16.35;;
71910;SDS011;59783;52.232;5.170;2022-10-17T05:41:27;17.63;;;16.00;;
71910;SDS011;59783;52.232;5.170;2022-10-17T05:43:52;17.50;;;15.80;;
71910;SDS011;59783;52.232;5.170;2022-10-17T05:46:17;18.52;;;16.80;;
71910;SDS011;59783;52.232;5.170;2022-10-17T05:48:43;17.65;;;15.95;;
71910;SDS011;59783;52.232;5.170;2022-10-17T05:51:08;16.83;;;15.20;;
71910;SDS011;59783;52.232;5.170;2022-10-17T05:53:37;18.48;;;16.67;;
71910;SDS011;59783;52.232;5.170;2022-10-17T05:56:04;17.50;;;15.80;;
71910;SDS011;59783;52.232;5.170;2022-10-17T06:00:59;18.00;;;16.30;;
71910;SDS011;59783;52.232;5.170;2022-10-17T06:03:25;17.40;;;15.75;;
71910;SDS011;59783;52.232;5.170;2022-10-17T06:05:50;17.50;;;15.85;;
71910;SDS011;59783;52.232;5.170;2022-10-17T06:08:16;17.52;;;15.82;;
71910;SDS011;59783;52.232;5.170;2022-10-17T06:10:42;18.65;;;16.85;;
71910;SDS011;59783;52.232;5.170;2022-10-17T06:13:07;16.92;;;15.30;;
71910;SDS011;59783;52.232;5.170;2022-10-17T06:15:32;17.55;;;15.75;;
71910;SDS011;59783;52.232;5.170;2022-10-17T06:17:58;18.35;;;16.65;;
71910;SDS011;59783;52.232;5.170;2022-10-17T06:20:23;18.58;;;16.88;;
71910;SDS011;59783;52.232;5.170;2022-10-17T06:22:48;18.67;;;16.95;;
71910;SDS011;59783;52.232;5.170;2022-10-17T06:25:14;18.98;;;17.23;;
71910;SDS011;59783;52.232;5.170;2022-10-17T06:27:39;17.45;;;15.75;;
71910;SDS011;59783;52.232;5.170;2022-10-17T06:30:04;17.67;;;15.98;;
71910;SDS011;59783;52.232;5.170;2022-10-17T06:32:30;17.00;;;15.30;;
71910;SDS011;59783;52.232;5.170;2022-10-17T06:34:55;17.80;;;16.10;;
71910;SDS011;59783;52.232;5.170;2022-10-17T06:37:21;17.65;;;15.95;;
71910;SDS011;59783;52.232;5.170;2022-10-17T06:39:46;17.27;;;15.55;;
71910;SDS011;59783;52.232;5.170;2022-10-17T06:42:11;17.23;;;15.52;;
71910;SDS011;59783;52.232;5.170;2022-10-17T06:44:37;19.80;;;17.98;;
71910;SDS011;59783;52.232;5.170;2022-10-17T06:47:03;19.60;;;17.80;;
71910;SDS011;59783;52.232;5.170;2022-10-17T06:49:29;17.65;;;15.95;;
71910;SDS011;59783;52.232;5.170;2022-10-17T06:51:54;17.60;;;15.90;;
71910;SDS011;59783;52.232;5.170;2022-10-17T06:54:19;18.35;;;16.55;;
71910;SDS011;59783;52.232;5.170;2022-10-17T06:56:45;18.35;;;16.63;;
71910;SDS011;59783;52.232;5.170;2022-10-17T06:59:10;19.40;;;17.60;;
71910;SDS011;59783;52.232;5.170;2022-10-17T07:01:35;18.27;;;16.55;;
71910;SDS011;59783;52.232;5.170;2022-10-17T07:04:01;17.85;;;16.13;;
71910;SDS011;59783;52.232;5.170;2022-10-17T07:06:26;18.35;;;16.65;;
71910;SDS011;59783;52.232;5.170;2022-10-17T07:08:52;19.60;;;17.80;;
71910;SDS011;59783;52.232;5.170;2022-10-17T07:11:20;19.08;;;17.27;;
71910;SDS011;59783;52.232;5.170;2022-10-17T07:13:46;19.17;;;17.35;;
71910;SDS011;59783;52.232;5.170;2022-10-17T07:16:11;17.33;;;15.63;;
71910;SDS011;59783;52.232;5.170;2022-10-17T07:18:37;18.23;;;16.50;;
71910;SDS011;59783;52.232;5.170;2022-10-17T07:21:03;19.40;;;17.60;;
71910;SDS011;59783;52.232;5.170;2022-10-17T07:23:29;19.73;;;17.90;;
71910;SDS011;59783;52.232;5.170;2022-10-17T07:25:58;18.73;;;16.92;;
71910;SDS011;59783;52.232;5.170;2022-10-17T07:28:25;19.13;;;17.33;;
71910;SDS011;59783;52.232;5.170;2022-10-17T07:30:51;17.92;;;16.23;;
71910;SDS011;59783;52.232;5.170;2022-10-17T07:33:16;19.30;;;17.45;;
71910;SDS011;59783;52.232;5.170;2022-10-17T07:35:42;17.15;;;15.43;;
71910;SDS011;59783;52.232;5.170;2022-10-17T07:38:07;18.55;;;16.75;;
71910;SDS011;59783;52.232;5.170;2022-10-17T07:40:32;18.20;;;16.40;;
71910;SDS011;59783;52.232;5.170;2022-10-17T07:42:58;18.85;;;17.05;;
71910;SDS011;59783;52.232;5.170;2022-10-17T07:45:24;18.92;;;17.13;;
71910;SDS011;59783;52.232;5.170;2022-10-17T07:47:54;18.17;;;16.42;;
71910;SDS011;59783;52.232;5.170;2022-10-17T07:50:20;20.02;;;18.13;;
71910;SDS011;59783;52.232;5.170;2022-10-17T07:52:45;19.90;;;18.00;;
71910;SDS011;59783;52.232;5.170;2022-10-17T07:55:10;20.90;;;19.00;;
71910;SDS011;59783;52.232;5.170;2022-10-17T07:57:36;19.35;;;17.55;;
71910;SDS011;59783;52.232;5.170;2022-10-17T08:00:01;20.52;;;18.63;;
71910;SDS011;59783;52.232;5.170;2022-10-17T08:02:26;20.02;;;18.20;;
71910;SDS011;59783;52.232;5.170;2022-10-17T08:04:52;22.17;;;20.17;;
71910;SDS011;59783;52.232;5.170;2022-10-17T08:07:17;21.90;;;19.90;;
71910;SDS011;59783;52.232;5.170;2022-10-17T08:09:43;20.58;;;18.67;;
71910;SDS011;59783;52.232;5.170;2022-10-17T08:12:09;20.65;;;18.73;;
71910;SDS011;59783;52.232;5.170;2022-10-17T08:14:34;21.70;;;19.70;;
71910;SDS011;59783;52.232;5.170;2022-10-17T08:17:00;21.60;;;19.65;;
71910;SDS011;59783;52.232;5.170;2022-10-17T08:19:25;20.85;;;18.95;;
71910;SDS011;59783;52.232;5.170;2022-10-17T08:21:50;21.73;;;19.77;;
71910;SDS011;59783;52.232;5.170;2022-10-17T08:24:16;14.13;;;13.18;;
71910;SDS011;59783;52.232;5.170;2022-10-17T08:26:41;11.07;;;10.27;;
71910;SDS011;59783;52.232;5.170;2022-10-17T08:29:11;7.47;;;6.85;;
71910;SDS011;59783;52.232;5.170;2022-10-17T08:31:37;6.05;;;5.45;;
71910;SDS011;59783;52.232;5.170;2022-10-17T08:34:02;5.90;;;5.30;;
71910;SDS011;59783;52.232;5.170;2022-10-17T08:36:28;6.68;;;6.07;;
71910;SDS011;59783;52.232;5.170;2022-10-17T08:38:53;5.53;;;5.00;;
71910;SDS011;59783;52.232;5.170;2022-10-17T08:41:30;5.55;;;5.03;;
71910;SDS011;59783;52.232;5.170;2022-10-17T08:46:45;4.13;;;3.08;;
71910;SDS011;59783;52.232;5.170;2022-10-17T08:49:18;4.35;;;3.33;;
71910;SDS011;59783;52.232;5.170;2022-10-17T08:54:29;5.05;;;4.15;;
71910;SDS011;59783;52.232;5.170;2022-10-17T08:56:58;4.95;;;4.13;;
71910;SDS011;59783;52.232;5.170;2022-10-17T08:59:27;4.85;;;4.03;;
71910;SDS011;59783;52.232;5.170;2022-10-17T09:02:09;5.43;;;4.93;;
71910;SDS011;59783;52.232;5.170;2022-10-17T09:07:24;4.78;;;3.83;;
71910;SDS011;59783;52.232;5.170;2022-10-17T09:10:14;8.73;;;8.02;;
71910;SDS011;59783;52.232;5.170;2022-10-17T09:13:05;4.88;;;4.20;;
71910;SDS011;59783;52.232;5.170;2022-10-17T09:16:03;4.68;;;4.13;;
71910;SDS011;59783;52.232;5.170;2022-10-17T09:18:41;6.07;;;5.47;;
71910;SDS011;59783;52.232;5.170;2022-10-17T09:21:18;5.35;;;4.85;;
71910;SDS011;59783;52.232;5.170;2022-10-17T09:23:48;6.00;;;5.40;;
71910;SDS011;59783;52.232;5.170;2022-10-17T09:26:16;5.03;;;4.47;;
71910;SDS011;59783;52.232;5.170;2022-10-17T09:28:41;5.05;;;4.50;;
71910;SDS011;59783;52.232;5.170;2022-10-17T09:31:24;4.40;;;3.45;;
71910;SDS011;59783;52.232;5.170;2022-10-17T09:33:51;4.88;;;4.15;;
71910;SDS011;59783;52.232;5.170;2022-10-17T09:38:47;4.70;;;3.77;;
71910;SDS011;59783;52.232;5.170;2022-10-17T09:41:16;4.72;;;4.03;;
71910;SDS011;59783;52.232;5.170;2022-10-17T09:43:46;5.18;;;4.60;;
71910;SDS011;59783;52.232;5.170;2022-10-17T09:46:14;4.72;;;3.88;;
71910;SDS011;59783;52.232;5.170;2022-10-17T09:48:46;5.00;;;4.40;;
71910;SDS011;59783;52.232;5.170;2022-10-17T09:51:14;5.13;;;4.45;;
71910;SDS011;59783;52.232;5.170;2022-10-17T09:53:41;4.68;;;3.80;;
71910;SDS011;59783;52.232;5.170;2022-10-17T09:56:12;4.85;;;3.97;;
71910;SDS011;59783;52.232;5.170;2022-10-17T09:58:40;4.68;;;3.63;;
71910;SDS011;59783;52.232;5.170;2022-10-17T10:01:13;4.78;;;3.83;;
71910;SDS011;59783;52.232;5.170;2022-10-17T10:03:44;4.80;;;4.03;;
71910;SDS011;59783;52.232;5.170;2022-10-17T10:08:49;4.55;;;3.83;;
71910;SDS011;59783;52.232;5.170;2022-10-17T10:11:16;4.60;;;3.88;;
71910;SDS011;59783;52.232;5.170;2022-10-17T10:13:42;4.93;;;4.40;;
71910;SDS011;59783;52.232;5.170;2022-10-17T10:16:16;4.57;;;3.92;;
71910;SDS011;59783;52.232;5.170;2022-10-17T10:18:45;4.63;;;3.78;;
71910;SDS011;59783;52.232;5.170;2022-10-17T10:21:15;4.40;;;3.33;;
71910;SDS011;59783;52.232;5.170;2022-10-17T10:26:27;4.50;;;3.50;;
71910;SDS011;59783;52.232;5.170;2022-10-17T10:29:00;4.28;;;3.10;;
71910;SDS011;59783;52.232;5.170;2022-10-17T10:31:30;4.50;;;3.33;;
71910;SDS011;59783;52.232;5.170;2022-10-17T10:34:02;6.47;;;5.88;;
71910;SDS011;59783;52.232;5.170;2022-10-17T10:36:43;13.38;;;12.45;;
71910;SDS011;59783;52.232;5.170;2022-10-17T10:42:07;8.90;;;8.20;;
71910;SDS011;59783;52.232;5.170;2022-10-17T10:44:42;10.70;;;9.90;;
71910;SDS011;59783;52.232;5.170;2022-10-17T10:47:19;9.00;;;8.30;;
71910;SDS011;59783;52.232;5.170;2022-10-17T10:49:46;8.65;;;7.95;;
71910;SDS011;59783;52.232;5.170;2022-10-17T10:52:48;7.60;;;6.97;;
71910;SDS011;59783;52.232;5.170;2022-10-17T10:55:39;6.07;;;5.50;;
71910;SDS011;59783;52.232;5.170;2022-10-17T11:01:13;7.93;;;7.28;;
71910;SDS011;59783;52.232;5.170;2022-10-17T11:03:45;4.20;;;3.25;;
71910;SDS011;59783;52.232;5.170;2022-10-17T11:06:21;9.10;;;8.40;;
71910;SDS011;59783;52.232;5.170;2022-10-17T11:11:38;6.95;;;6.35;;
71910;SDS011;59783;52.232;5.170;2022-10-17T11:22:33;6.03;;;5.43;;
71910;SDS011;59783;52.232;5.170;2022-10-17T11:25:07;6.53;;;5.93;;
71910;SDS011;59783;52.232;5.170;2022-10-17T11:27:57;4.35;;;3.30;;
71910;SDS011;59783;52.232;5.170;2022-10-17T11:30:23;6.05;;;5.45;;
71910;SDS011;59783;52.232;5.170;2022-10-17T11:32:52;5.60;;;5.10;;
71910;SDS011;59783;52.232;5.170;2022-10-17T11:35:23;4.72;;;3.88;;
71910;SDS011;59783;52.232;5.170;2022-10-17T11:37:57;5.15;;;4.65;;
71910;SDS011;59783;52.232;5.170;2022-10-17T11:40:35;5.93;;;5.40;;
71910;SDS011;59783;52.232;5.170;2022-10-17T11:43:04;4.85;;;4.22;;
71910;SDS011;59783;52.232;5.170;2022-10-17T11:45:35;5.03;;;4.50;;
71910;SDS011;59783;52.232;5.170;2022-10-17T11:48:51;4.80;;;4.18;;
71910;SDS011;59783;52.232;5.170;2022-10-17T11:51:09;5.15;;;4.65;;
71910;SDS011;59783;52.232;5.170;2022-10-17T11:53:43;4.72;;;3.95;;
71910;SDS011;59783;52.232;5.170;2022-10-17T11:56:09;5.13;;;4.63;;
71910;SDS011;59783;52.232;5.170;2022-10-17T12:01:17;5.18;;;4.63;;
71910;SDS011;59783;52.232;5.170;2022-10-17T12:06:46;4.13;;;3.05;;
71910;SDS011;59783;52.232;5.170;2022-10-17T12:12:29;4.95;;;4.25;;
71910;SDS011;59783;52.232;5.170;2022-10-17T12:17:42;5.30;;;4.78;;
71910;SDS011;59783;52.232;5.170;2022-10-17T12:22:49;4.88;;;4.15;;
71910;SDS011;59783;52.232;5.170;2022-10-17T12:31:08;5.38;;;4.88;;
71910;SDS011;59783;52.232;5.170;2022-10-17T12:38:40;4.93;;;4.35;;
71910;SDS011;59783;52.232;5.170;2022-10-17T12:41:07;4.47;;;3.63;;
71910;SDS011;59783;52.232;5.170;2022-10-17T12:43:48;5.50;;;5.00;;
71910;SDS011;59783;52.232;5.170;2022-10-17T12:49:49;5.15;;;4.65;;
71910;SDS011;59783;52.232;5.170;2022-10-17T13:03:16;5.00;;;4.45;;
71910;SDS011;59783;52.232;5.170;2022-10-17T13:05:51;4.85;;;3.97;;
71910;SDS011;59783;52.232;5.170;2022-10-17T13:08:21;4.63;;;3.70;;
71910;SDS011;59783;52.232;5.170;2022-10-17T13:10:49;5.40;;;4.90;;
71910;SDS011;59783;52.232;5.170;2022-10-17T13:13:35;5.97;;;5.38;;
71910;SDS011;59783;52.232;5.170;2022-10-17T13:16:07;4.88;;;4.18;;
71910;SDS011;59783;52.232;5.170;2022-10-17T13:18:33;4.60;;;3.65;;
71910;SDS011;59783;52.232;5.170;2022-10-17T13:21:02;5.28;;;4.78;;
71910;SDS011;59783;52.232;5.170;2022-10-17T13:23:39;4.32;;;3.40;;
71910;SDS011;59783;52.232;5.170;2022-10-17T13:29:12;4.53;;;3.60;;
71910;SDS011;59783;52.232;5.170;2022-10-17T13:31:42;4.88;;;4.10;;
71910;SDS011;59783;52.232;5.170;2022-10-17T13:34:15;5.18;;;4.68;;
71910;SDS011;59783;52.232;5.170;2022-10-17T13:36:45;4.72;;;3.92;;
71910;SDS011;59783;52.232;5.170;2022-10-17T13:39:19;4.80;;;4.13;;
71910;SDS011;59783;52.232;5.170;2022-10-17T13:41:46;5.72;;;5.22;;
71910;SDS011;59783;52.232;5.170;2022-10-17T13:44:12;5.45;;;4.95;;
71910;SDS011;59783;52.232;5.170;2022-10-17T13:46:39;4.47;;;3.47;;
71910;SDS011;59783;52.232;5.170;2022-10-17T13:49:15;5.22;;;4.72;;
71910;SDS011;59783;52.232;5.170;2022-10-17T13:51:44;5.35;;;4.85;;
71910;SDS011;59783;52.232;5.170;2022-10-17T13:56:56;4.65;;;4.10;;
71910;SDS011;59783;52.232;5.170;2022-10-17T13:59:24;4.47;;;3.65;;
71910;SDS011;59783;52.232;5.170;2022-10-17T14:01:52;4.55;;;3.65;;
71910;SDS011;59783;52.232;5.170;2022-10-17T14:04:19;4.82;;;4.28;;
71910;SDS011;59783;52.232;5.170;2022-10-17T14:06:44;5.72;;;5.18;;
71910;SDS011;59783;52.232;5.170;2022-10-17T14:09:19;5.10;;;4.60;;
71910;SDS011;59783;52.232;5.170;2022-10-17T14:11:54;4.28;;;3.33;;
71910;SDS011;59783;52.232;5.170;2022-10-17T14:14:22;4.55;;;3.58;;
71910;SDS011;59783;52.232;5.170;2022-10-17T14:16:49;4.63;;;3.97;;
71910;SDS011;59783;52.232;5.170;2022-10-17T14:19:25;4.40;;;3.55;;
71910;SDS011;59783;52.232;5.170;2022-10-17T14:21:55;4.72;;;3.88;;
71910;SDS011;59783;52.232;5.170;2022-10-17T14:24:38;4.60;;;3.88;;
71910;SDS011;59783;52.232;5.170;2022-10-17T14:29:51;5.38;;;4.88;;
71910;SDS011;59783;52.232;5.170;2022-10-17T14:32:18;5.35;;;4.85;;
71910;SDS011;59783;52.232;5.170;2022-10-17T14:34:44;4.65;;;3.97;;
71910;SDS011;59783;52.232;5.170;2022-10-17T14:37:11;5.35;;;4.85;;
71910;SDS011;59783;52.232;5.170;2022-10-17T14:39:48;4.30;;;3.25;;
71910;SDS011;59783;52.232;5.170;2022-10-17T14:42:20;4.80;;;4.15;;
71910;SDS011;59783;52.232;5.170;2022-10-17T14:44:49;4.50;;;3.80;;
71910;SDS011;59783;52.232;5.170;2022-10-17T14:47:20;4.47;;;3.75;;
71910;SDS011;59783;52.232;5.170;2022-10-17T14:49:49;4.22;;;3.45;;
71910;SDS011;59783;52.232;5.170;2022-10-17T14:54:44;4.20;;;3.33;;
71910;SDS011;59783;52.232;5.170;2022-10-17T14:59:55;4.35;;;3.55;;
71910;SDS011;59783;52.232;5.170;2022-10-17T15:02:24;4.43;;;3.63;;
71910;SDS011;59783;52.232;5.170;2022-10-17T15:04:50;3.75;;;2.63;;
71910;SDS011;59783;52.232;5.170;2022-10-17T15:07:16;4.72;;;4.13;;
71910;SDS011;59783;52.232;5.170;2022-10-17T15:09:42;4.43;;;3.50;;
71910;SDS011;59783;52.232;5.170;2022-10-17T15:12:12;4.70;;;4.15;;
71910;SDS011;59783;52.232;5.170;2022-10-17T15:14:39;4.55;;;3.90;;
71910;SDS011;59783;52.232;5.170;2022-10-17T15:17:11;4.65;;;3.97;;
71910;SDS011;59783;52.232;5.170;2022-10-17T15:22:03;5.33;;;4.83;;
71910;SDS011;59783;52.232;5.170;2022-10-17T15:24:29;5.28;;;4.78;;
71910;SDS011;59783;52.232;5.170;2022-10-17T15:26:54;6.25;;;5.65;;
71910;SDS011;59783;52.232;5.170;2022-10-17T15:29:20;4.80;;;4.13;;
71910;SDS011;59783;52.232;5.170;2022-10-17T15:31:45;4.97;;;4.47;;
71910;SDS011;59783;52.232;5.170;2022-10-17T15:34:11;4.35;;;3.55;;
71910;SDS011;59783;52.232;5.170;2022-10-17T15:36:39;4.40;;;3.83;;
71910;SDS011;59783;52.232;5.170;2022-10-17T15:39:06;4.00;;;2.72;;
71910;SDS011;59783;52.232;5.170;2022-10-17T15:41:31;4.07;;;3.22;;
71910;SDS011;59783;52.232;5.170;2022-10-17T15:43:57;3.67;;;2.58;;
71910;SDS011;59783;52.232;5.170;2022-10-17T15:46:24;4.38;;;3.63;;
71910;SDS011;59783;52.232;5.170;2022-10-17T15:48:51;4.03;;;3.10;;
71910;SDS011;59783;52.232;5.170;2022-10-17T15:51:17;3.83;;;2.65;;
71910;SDS011;59783;52.232;5.170;2022-10-17T15:53:43;4.00;;;3.00;;
71910;SDS011;59783;52.232;5.170;2022-10-17T15:56:27;4.07;;;3.25;;
71910;SDS011;59783;52.232;5.170;2022-10-17T15:58:54;3.70;;;2.33;;
71910;SDS011;59783;52.232;5.170;2022-10-17T16:01:24;3.95;;;2.97;;
71910;SDS011;59783;52.232;5.170;2022-10-17T16:03:51;3.78;;;2.90;;
71910;SDS011;59783;52.232;5.170;2022-10-17T16:06:17;3.60;;;2.38;;
71910;SDS011;59783;52.232;5.170;2022-10-17T16:08:43;3.58;;;2.13;;
71910;SDS011;59783;52.232;5.170;2022-10-17T16:11:16;3.67;;;2.60;;
71910;SDS011;59783;52.232;5.170;2022-10-17T16:13:52;3.75;;;2.97;;
71910;SDS011;59783;52.232;5.170;2022-10-17T16:16:18;3.35;;;2.22;;
71910;SDS011;59783;52.232;5.170;2022-10-17T16:18:44;3.20;;;2.20;;
71910;SDS011;59783;52.232;5.170;2022-10-17T16:21:13;3.05;;;1.75;;
71910;SDS011;59783;52.232;5.170;2022-10-17T16:23:39;3.58;;;2.42;;
71910;SDS011;59783;52.232;5.170;2022-10-17T16:26:05;3.00;;;1.90;;
71910;SDS011;59783;52.232;5.170;2022-10-17T16:28:31;3.08;;;1.80;;
71910;SDS011;59783;52.232;5.170;2022-10-17T16:30:56;2.75;;;1.42;;
71910;SDS011;59783;52.232;5.170;2022-10-17T16:33:22;2.67;;;1.17;;
71910;SDS011;59783;52.232;5.170;2022-10-17T16:35:47;3.15;;;1.98;;
71910;SDS011;59783;52.232;5.170;2022-10-17T16:38:13;3.25;;;1.90;;
71910;SDS011;59783;52.232;5.170;2022-10-17T16:40:38;3.25;;;2.00;;
71910;SDS011;59783;52.232;5.170;2022-10-17T16:43:04;2.85;;;1.35;;
71910;SDS011;59783;52.232;5.170;2022-10-17T16:45:29;2.72;;;1.50;;